Time;durP1;ratioP1;P1;durP2;ratioP2;P2;SDS_P1;SDS_P2;PMS_P1;PMS_P2;Temp;Humidity;BMP_temperature;BMP_pressure;BME280_temperature;BME280_humidity;BME280_pressure;Samples;Min_cycle;Max_cycle;Signal;HPM_P1;HPM_P2
2023/01/01 00:02:48;;;;;;;6.47;3.85;;;;;;;2.83;100.00;99095.44;10468749;28;20044;-76
2023/01/01 00:07:50;;;;;;;2.20;1.95;;;;;;;2.84;100.00;99082.69;10487945;28;20049;-76
2023/01/01 00:12:52;;;;;;;4.78;3.47;;;;;;;2.83;100.00;99078.38;10486493;28;20052;-76
2023/01/01 00:17:55;;;;;;;3.15;1.88;;;;;;;2.83;100.00;99081.88;10469922;28;20065;-76
2023/01/01 00:22:57;;;;;;;4.85;2.58;;;;;;;2.83;100.00;99081.88;10486315;28;20036;-75
2023/01/01 00:27:59;;;;;;;3.33;2.47;;;;;;;2.91;100.00;99064.28;10507163;28;20045;-76
2023/01/01 00:33:01;;;;;;;4.80;2.05;;;;;;;3.02;100.00;99061.31;10527448;28;20044;-76
2023/01/01 00:38:04;;;;;;;3.97;1.77;;;;;;;3.08;100.00;99053.19;10527099;28;20048;-76
2023/01/01 00:43:06;;;;;;;2.22;1.60;;;;;;;3.15;100.00;99046.41;10527590;28;20049;-76
2023/01/01 00:48:08;;;;;;;2.53;2.03;;;;;;;3.10;100.00;99059.94;10511646;28;20510;-77
2023/01/01 00:53:10;;;;;;;4.00;3.15;;;;;;;3.12;100.00;99068.63;10486189;28;20047;-75
2023/01/01 00:58:13;;;;;;;2.05;1.27;;;;;;;3.12;100.00;99056.97;10524280;28;20495;-76
2023/01/01 01:03:48;;;;;;;3.35;2.30;;;;;;;3.07;100.00;99062.38;10527030;28;20045;-77
2023/01/01 01:08:45;;;;;;;2.38;1.50;;;;;;;3.16;100.00;99052.66;10512839;28;20055;-76
2023/01/01 01:13:49;;;;;;;1.85;1.58;;;;;;;3.14;100.00;99033.13;10530711;28;20040;-76
2023/01/01 01:18:53;;;;;;;1.23;1.13;;;;;;;3.12;100.00;99035.28;10535368;28;20040;-75
2023/01/01 01:23:58;;;;;;;1.42;1.15;;;;;;;3.13;100.00;99032.34;10535829;28;20518;-76
2023/01/01 01:29:01;;;;;;;2.03;1.20;;;;;;;3.07;100.00;99027.16;10495173;28;20056;-75
2023/01/01 01:34:03;;;;;;;2.50;1.27;;;;;;;3.17;100.00;99014.44;10493440;28;20064;-78
2023/01/01 01:39:05;;;;;;;2.15;1.33;;;;;;;3.17;100.00;99006.31;10491924;28;20132;-75
2023/01/01 01:44:45;;;;;;;1.27;1.00;;;;;;;3.19;100.00;99006.84;10492617;28;20049;-74
2023/01/01 01:49:49;;;;;;;1.63;1.13;;;;;;;3.19;100.00;98998.72;10529053;28;20042;-76
2023/01/01 01:54:51;;;;;;;1.20;0.88;;;;;;;3.16;100.00;99012.81;10516059;28;20044;-76
2023/01/01 01:59:55;;;;;;;1.35;0.90;;;;;;;3.17;100.00;99000.06;10533343;28;20048;-75
2023/01/01 02:04:57;;;;;;;0.70;0.70;;;;;;;3.24;100.00;99017.66;10523745;28;20053;-76
2023/01/01 02:10:01;;;;;;;0.80;0.50;;;;;;;3.21;100.00;99017.41;10474219;28;20044;-73
2023/01/01 02:15:03;;;;;;;0.85;0.70;;;;;;;3.24;100.00;99009.53;10491567;28;20053;-75
2023/01/01 02:20:39;;;;;;;1.23;1.13;;;;;;;3.23;100.00;98997.06;10473228;28;20397;-76
2023/01/01 02:26:03;;;;;;;0.80;0.80;;;;;;;3.21;100.00;98993.81;10491384;28;20419;-75
2023/01/01 02:31:07;;;;;;;0.73;0.68;;;;;;;3.31;100.00;98993.81;10491622;28;20506;-76
2023/01/01 02:36:09;;;;;;;2.80;0.98;;;;;;;3.21;100.00;98990.31;10473169;28;20045;-76
2023/01/01 02:41:26;;;;;;;0.65;0.65;;;;;;;3.18;100.00;98993.56;10432602;28;20041;-76
2023/01/01 02:46:33;;;;;;;0.95;0.80;;;;;;;3.16;100.00;98980.28;10436558;28;20419;-76
2023/01/01 02:51:42;;;;;;;0.63;0.60;;;;;;;3.23;100.00;98971.84;10490886;28;20044;-76
2023/01/01 02:57:10;;;;;;;0.70;0.70;;;;;;;3.19;100.00;98974.31;10483873;28;20066;-75
2023/01/01 03:02:15;;;;;;;;;;;;;;;3.24;100.00;98971.59;10489520;28;20066;-75
2023/01/01 03:07:44;;;;;;;3.08;0.90;;;;;;;3.24;100.00;98966.16;10484251;28;19925;-75
2023/01/01 03:12:55;;;;;;;2.05;1.10;;;;;;;3.28;100.00;98955.59;10480371;28;20049;-75
2023/01/01 03:18:00;;;;;;;0.80;0.45;;;;;;;3.35;100.00;98977.81;10470968;28;20060;-75
2023/01/01 03:23:11;;;;;;;0.70;0.45;;;;;;;3.42;100.00;98977.50;10489267;28;20045;-76
2023/01/01 03:28:21;;;;;;;1.10;1.00;;;;;;;3.51;99.84;98994.84;10463187;28;20052;-76
2023/01/01 03:33:40;;;;;;;1.17;0.90;;;;;;;3.57;99.51;98993.75;10447062;28;20041;-76
2023/01/01 03:38:49;;;;;;;2.55;0.88;;;;;;;3.58;98.33;98990.75;10449178;28;20060;-76
2023/01/01 03:44:08;;;;;;;3.20;1.02;;;;;;;3.62;98.13;98974.75;10445688;28;20057;-75
2023/01/01 03:49:10;;;;;;;1.10;0.70;;;;;;;3.61;96.82;98973.94;10429950;28;20060;-76
2023/01/01 03:54:29;;;;;;;2.83;0.88;;;;;;;3.70;97.36;98981.50;10453128;28;20045;-76
2023/01/01 03:59:41;;;;;;;1.88;0.65;;;;;;;3.77;96.09;98999.09;10487812;28;20048;-76
2023/01/01 04:04:45;;;;;;;2.20;1.15;;;;;;;3.74;95.92;98996.94;10453399;28;20049;-76
2023/01/01 04:09:52;;;;;;;1.83;0.90;;;;;;;3.75;94.93;98992.34;10468715;28;20056;-76
2023/01/01 04:14:55;;;;;;;1.25;0.90;;;;;;;3.70;94.19;98978.81;10486786;28;20060;-75
2023/01/01 04:20:01;;;;;;;1.27;0.80;;;;;;;3.72;94.49;98976.63;10469401;28;20061;-75
2023/01/01 04:25:08;;;;;;;4.10;1.00;;;;;;;3.68;94.62;98979.06;10468475;28;20056;-75
2023/01/01 04:30:14;;;;;;;0.82;0.25;;;;;;;3.71;93.97;98981.22;10468514;28;20357;-75
2023/01/01 04:35:17;;;;;;;1.60;0.63;;;;;;;3.74;93.94;98979.88;10444758;28;20049;-76
2023/01/01 04:40:19;;;;;;;1.50;1.10;;;;;;;3.72;93.48;98985.56;10444474;28;20042;-75
2023/01/01 04:45:21;;;;;;;1.17;0.70;;;;;;;3.67;93.26;98982.88;10444713;28;20061;-75
2023/01/01 04:50:24;;;;;;;0.17;0.17;;;;;;;3.65;92.95;98979.63;10444977;28;20056;-75
2023/01/01 04:55:26;;;;;;;1.23;0.70;;;;;;;3.60;92.78;99002.13;10444563;28;20053;-75
2023/01/01 05:00:28;;;;;;;0.28;0.28;;;;;;;3.62;93.11;99002.69;10444172;28;20049;-75
2023/01/01 05:05:30;;;;;;;1.67;0.75;;;;;;;3.57;93.65;99012.72;10444229;28;20044;-75
2023/01/01 05:10:33;;;;;;;5.88;1.00;;;;;;;3.55;93.66;99006.78;10452301;28;20052;-75
2023/01/01 05:15:36;;;;;;;5.03;1.17;;;;;;;3.63;92.78;99015.16;10444019;28;20527;-75
2023/01/01 05:20:38;;;;;;;2.08;0.93;;;;;;;3.51;92.42;99022.78;10444265;28;20053;-75
2023/01/01 05:25:40;;;;;;;4.28;1.10;;;;;;;3.45;92.38;99018.44;10444286;28;20077;-75
2023/01/01 05:30:43;;;;;;;2.65;0.40;;;;;;;3.33;91.37;99018.75;10466478;28;20052;-75
2023/01/01 05:35:45;;;;;;;2.33;0.73;;;;;;;3.31;91.73;99029.06;10484648;28;20052;-75
2023/01/01 05:40:47;;;;;;;1.67;0.70;;;;;;;3.23;91.44;99058.59;10503073;28;20049;-75
2023/01/01 05:46:02;;;;;;;3.65;0.90;;;;;;;3.14;91.17;99061.06;10518529;28;20053;-75
2023/01/01 05:51:16;;;;;;;3.65;0.57;;;;;;;3.09;91.43;99069.16;10500407;28;20048;-75
2023/01/01 05:56:18;;;;;;;1.08;0.70;;;;;;;2.94;90.66;99063.72;10484215;28;20065;-75
2023/01/01 06:01:23;;;;;;;3.75;0.85;;;;;;;2.82;91.21;99087.56;10488641;28;20052;-74
2023/01/01 06:06:28;;;;;;;2.50;0.93;;;;;;;2.71;91.46;99092.16;10491531;28;20056;-76
2023/01/01 06:11:30;;;;;;;4.32;0.80;;;;;;;2.66;91.59;99092.97;10491934;28;20067;-75
2023/01/01 06:16:33;;;;;;;3.00;1.00;;;;;;;2.57;91.58;99101.84;10494011;28;20052;-75
2023/01/01 06:21:35;;;;;;;2.53;1.00;;;;;;;2.49;91.70;99100.50;10521159;28;20518;-74
2023/01/01 06:26:38;;;;;;;8.07;1.15;;;;;;;2.38;91.30;99101.53;10520708;28;20056;-76
2023/01/01 06:31:40;;;;;;;2.25;0.60;;;;;;;2.29;92.03;99109.34;10490555;28;20045;-76
2023/01/01 06:36:42;;;;;;;0.55;0.40;;;;;;;2.21;92.56;99114.44;10529603;28;20048;-75
2023/01/01 06:41:44;;;;;;;4.38;0.93;;;;;;;2.19;91.85;99124.72;10532248;28;20032;-75
2023/01/01 06:46:46;;;;;;;1.33;0.98;;;;;;;2.13;92.45;99126.59;10530156;28;20044;-76
2023/01/01 06:51:49;;;;;;;4.47;0.77;;;;;;;2.10;92.39;99141.47;10531439;28;20048;-76
2023/01/01 06:56:51;;;;;;;2.72;0.55;;;;;;;2.12;91.70;99154.72;10531247;28;20068;-75
2023/01/01 07:01:53;;;;;;;4.13;0.60;;;;;;;2.08;91.81;99159.84;10531326;28;20411;-75
2023/01/01 07:06:55;;;;;;;3.05;0.80;;;;;;;2.16;91.88;99173.97;10509713;28;20048;-75
2023/01/01 07:11:58;;;;;;;1.23;0.70;;;;;;;2.05;92.38;99184.72;10506793;28;20041;-75
2023/01/01 07:17:00;;;;;;;2.95;0.50;;;;;;;2.02;92.02;99203.34;10489005;28;20048;-75
2023/01/01 07:22:02;;;;;;;1.65;0.77;;;;;;;1.96;91.98;99209.81;10488760;28;20049;-75
2023/01/01 07:27:06;;;;;;;2.22;0.57;;;;;;;2.00;91.98;99205.50;10488895;28;20049;-75
2023/01/01 07:32:12;;;;;;;6.65;0.57;;;;;;;2.11;91.21;99204.50;10497529;28;20063;-74
2023/01/01 07:37:14;;;;;;;6.25;0.70;;;;;;;2.08;91.13;99205.84;10528145;28;20143;-74
2023/01/01 07:42:17;;;;;;;2.42;0.80;;;;;;;2.27;91.77;99217.06;10527423;28;20457;-75
2023/01/01 07:47:25;;;;;;;1.20;0.40;;;;;;;2.15;91.08;99226.44;10491917;28;20404;-75
2023/01/01 07:52:27;;;;;;;4.78;0.85;;;;;;;2.09;90.81;99231.84;10488786;28;20049;-74
2023/01/01 07:57:29;;;;;;;3.03;1.10;;;;;;;2.10;92.10;99241.59;10486908;28;20106;-76
2023/01/01 08:02:32;;;;;;;4.18;0.77;;;;;;;2.16;91.27;99244.31;10503017;28;20055;-75
2023/01/01 08:07:34;;;;;;;3.15;1.05;;;;;;;2.27;91.76;99249.53;10529304;28;20538;-75
2023/01/01 08:12:37;;;;;;;5.00;0.73;;;;;;;2.20;91.49;99250.81;10528004;28;20048;-75
2023/01/01 08:17:39;;;;;;;0.45;0.30;;;;;;;2.08;91.78;99259.97;10527894;28;20056;-76
2023/01/01 08:22:41;;;;;;;1.13;0.70;;;;;;;2.05;92.21;99263.16;10527509;28;20074;-75
2023/01/01 08:27:43;;;;;;;5.88;0.90;;;;;;;2.04;91.65;99274.25;10528196;28;20055;-75
2023/01/01 08:32:47;;;;;;;3.20;0.80;;;;;;;2.10;92.00;99281.34;10500975;28;20045;-77
2023/01/01 08:37:49;;;;;;;2.70;0.75;;;;;;;1.94;91.38;99280.41;10486437;28;20057;-75
2023/01/01 08:42:51;;;;;;;0.80;0.50;;;;;;;1.78;90.79;99273.25;10486677;28;20051;-77
2023/01/01 08:47:53;;;;;;;2.35;0.80;;;;;;;1.70;90.85;99276.41;10486232;28;20495;-74
2023/01/01 08:52:57;;;;;;;1.48;0.60;;;;;;;1.58;90.38;99283.88;10486797;28;20400;-76
2023/01/01 08:57:59;;;;;;;2.25;1.00;;;;;;;1.55;90.46;99282.47;10495828;28;20056;-75
2023/01/01 09:03:01;;;;;;;7.22;1.00;;;;;;;1.56;90.13;99289.50;10527240;28;20404;-75
2023/01/01 09:08:03;;;;;;;4.82;1.02;;;;;;;1.56;90.63;99294.09;10513128;28;20056;-74
2023/01/01 09:13:06;;;;;;;0.50;0.50;;;;;;;1.52;89.86;99293.78;10508294;28;20056;-75
2023/01/01 09:18:10;;;;;;;1.73;0.60;;;;;;;1.54;89.99;99298.94;10467034;28;20049;-75
2023/01/01 09:23:12;;;;;;;3.08;0.68;;;;;;;1.59;89.43;99288.19;10485776;28;20052;-75
2023/01/01 09:28:14;;;;;;;0.50;0.40;;;;;;;1.58;89.30;99294.69;10485963;28;20060;-76
2023/01/01 09:33:17;;;;;;;1.10;0.60;;;;;;;1.58;88.98;99292.78;10514084;28;20044;-76
2023/01/01 09:38:19;;;;;;;2.53;0.75;;;;;;;1.64;88.90;99290.94;10534353;28;20071;-75
2023/01/01 09:44:09;;;;;;;1.45;0.57;;;;;;;1.66;88.88;99289.63;10533961;28;20526;-75
2023/01/01 09:49:16;;;;;;;2.13;0.80;;;;;;;1.57;89.35;99290.34;10418771;28;20044;-76
2023/01/01 09:55:07;;;;;;;5.60;1.00;;;;;;;1.53;89.10;99290.03;10532774;28;20052;-76
2023/01/01 10:00:15;;;;;;;1.88;0.73;;;;;;;1.45;90.13;99282.38;10534172;28;20048;-76
2023/01/01 10:05:45;;;;;;;2.10;0.75;;;;;;;1.39;89.41;99288.78;10533554;28;20445;-75
2023/01/01 10:10:55;;;;;;;1.58;0.90;;;;;;;1.43;89.92;99279.94;10508231;28;20033;-75
2023/01/01 10:16:36;;;;;;;3.25;1.38;;;;;;;1.42;90.01;99275.59;10491585;28;20064;-75
2023/01/01 10:21:42;;;;;;;1.38;0.60;;;;;;;1.37;90.25;99291.75;10473901;28;20057;-77
2023/01/01 10:26:44;;;;;;;2.05;0.80;;;;;;;1.33;90.11;99290.63;10510560;28;20407;-76
2023/01/01 10:31:56;;;;;;;3.90;0.90;;;;;;;1.33;90.34;99303.31;10485799;28;20051;-76
2023/01/01 10:37:02;;;;;;;1.70;0.80;;;;;;;1.38;90.49;99309.59;10457631;28;20057;-75
2023/01/01 10:42:11;;;;;;;2.80;1.50;;;;;;;1.38;90.39;99308.78;10490644;28;20138;-75
2023/01/01 10:47:24;;;;;;;1.98;0.75;;;;;;;1.34;90.48;99302.25;10491570;28;20168;-76
2023/01/01 10:52:41;;;;;;;3.25;0.68;;;;;;;1.40;90.62;99302.06;10531338;28;20048;-75
2023/01/01 10:58:26;;;;;;;1.63;0.90;;;;;;;1.33;90.17;99322.25;10526582;28;20409;-75
2023/01/01 11:03:28;;;;;;;1.98;0.80;;;;;;;1.49;89.96;99319.44;10529779;28;20055;-76
2023/01/01 11:08:32;;;;;;;3.55;0.73;;;;;;;1.72;89.68;99322.91;10529452;28;20047;-76
2023/01/01 11:13:35;;;;;;;3.67;0.82;;;;;;;1.59;89.62;99331.47;10512766;28;20499;-75
2023/01/01 11:18:41;;;;;;;2.88;0.60;;;;;;;1.43;89.93;99336.69;10513298;28;20051;-75
2023/01/01 11:23:43;;;;;;;3.60;0.85;;;;;;;1.34;89.56;99340.91;10512450;28;20139;-75
2023/01/01 11:29:13;;;;;;;1.52;0.80;;;;;;;1.38;90.22;99346.63;10508092;28;20045;-74
2023/01/01 11:34:21;;;;;;;1.92;0.75;;;;;;;1.20;90.89;99350.44;10471357;28;20041;-76
2023/01/01 11:39:25;;;;;;;1.60;0.63;;;;;;;1.09;90.56;99349.53;10487607;28;20049;-76
2023/01/01 11:44:42;;;;;;;2.90;0.60;;;;;;;1.03;91.42;99347.00;10487741;28;20071;-76
2023/01/01 11:49:45;;;;;;;1.80;0.90;;;;;;;1.00;91.78;99361.81;10490890;28;20052;-76
2023/01/01 11:54:49;;;;;;;5.07;0.98;;;;;;;1.05;91.79;99361.91;10512088;28;20045;-74
2023/01/01 12:00:03;;;;;;;6.10;1.38;;;;;;;1.00;91.93;99361.00;10486644;28;20127;-75
2023/01/01 12:05:16;;;;;;;3.75;0.80;;;;;;;0.96;92.12;99359.88;10489888;28;20406;-75
2023/01/01 12:10:26;;;;;;;3.28;0.90;;;;;;;0.94;92.32;99364.72;10470406;28;20049;-75
2023/01/01 12:15:35;;;;;;;3.38;0.85;;;;;;;0.97;92.52;99350.69;10487085;28;20048;-76
2023/01/01 12:20:53;;;;;;;2.80;0.77;;;;;;;0.95;92.39;99358.25;10469274;28;20036;-75
2023/01/01 12:26:08;;;;;;;2.90;0.85;;;;;;;0.85;91.99;99354.31;10486878;28;20331;-76
2023/01/01 12:31:16;;;;;;;2.45;0.70;;;;;;;0.75;92.33;99353.38;10486368;28;20056;-75
2023/01/01 12:36:32;;;;;;;3.70;0.85;;;;;;;0.69;92.47;99344.38;10485839;28;20057;-75
2023/01/01 12:41:47;;;;;;;4.65;1.58;;;;;;;0.62;92.71;99361.81;10486089;28;20255;-76
2023/01/01 12:46:58;;;;;;;5.13;1.05;;;;;;;0.47;92.73;99357.00;10487559;28;20041;-75
2023/01/01 12:52:22;;;;;;;4.20;1.15;;;;;;;0.38;93.06;99362.00;10502951;28;20041;-75
2023/01/01 12:57:36;;;;;;;3.13;1.38;;;;;;;0.30;94.10;99375.91;10485317;28;20065;-75
2023/01/01 13:02:48;;;;;;;3.90;1.55;;;;;;;0.27;93.75;99395.28;10479949;28;20052;-75
2023/01/01 13:07:53;;;;;;;5.35;1.50;;;;;;;0.31;94.44;99423.41;10487210;28;20055;-75
2023/01/01 13:12:56;;;;;;;1.10;0.73;;;;;;;0.23;93.95;99419.22;10476102;28;20499;-75
2023/01/01 13:17:58;;;;;;;1.52;0.70;;;;;;;0.20;94.30;99416.22;10493604;28;20045;-75
2023/01/01 13:23:00;;;;;;;3.97;1.13;;;;;;;0.09;94.20;99431.38;10493944;28;20040;-76
2023/01/01 13:28:10;;;;;;;3.30;0.77;;;;;;;0.03;94.58;99439.63;10493303;28;20037;-75
2023/01/01 13:33:33;;;;;;;2.17;0.70;;;;;;;-0.06;95.04;99431.91;10516453;28;20055;-74
2023/01/01 13:38:44;;;;;;;1.20;0.68;;;;;;;-0.05;94.96;99433.56;10534453;28;20053;-75
2023/01/01 13:43:46;;;;;;;2.45;1.00;;;;;;;-0.11;95.49;99441.81;10534630;28;20040;-74
2023/01/01 13:49:25;;;;;;;3.22;0.85;;;;;;;-0.19;95.96;99445.69;10528852;28;20419;-76
2023/01/01 13:54:57;;;;;;;2.92;1.55;;;;;;;-0.14;96.09;99447.69;10475111;28;20049;-76
2023/01/01 14:00:17;;;;;;;1.88;1.15;;;;;;;-0.17;96.43;99457.06;10492711;28;20063;-76
2023/01/01 14:05:39;;;;;;;7.47;1.42;;;;;;;-0.19;96.65;99461.03;10514402;28;20057;-75
2023/01/01 14:10:48;;;;;;;3.92;1.77;;;;;;;-0.10;95.97;99459.63;10483020;28;20052;-75
2023/01/01 14:15:55;;;;;;;4.28;1.52;;;;;;;-0.08;96.00;99462.88;10492181;28;20518;-76
2023/01/01 14:20:58;;;;;;;4.70;1.20;;;;;;;-0.09;96.19;99456.69;10490075;28;20063;-75
2023/01/01 14:26:02;;;;;;;3.60;1.00;;;;;;;-0.10;96.37;99456.91;10496088;28;20033;-75
2023/01/01 14:31:10;;;;;;;3.92;1.30;;;;;;;-0.10;95.61;99457.72;10515212;28;20415;-75
2023/01/01 14:36:19;;;;;;;3.42;1.00;;;;;;;-0.08;95.88;99460.19;10531977;28;20052;-74
2023/01/01 14:41:30;;;;;;;2.22;0.80;;;;;;;-0.14;95.46;99467.38;10532152;28;20056;-75
2023/01/01 14:46:32;;;;;;;2.85;0.90;;;;;;;-0.17;95.61;99458.94;10530831;28;20041;-75
2023/01/01 14:51:36;;;;;;;4.88;1.20;;;;;;;-0.27;95.20;99469.53;10507805;28;20061;-75
2023/01/01 14:56:38;;;;;;;2.42;1.13;;;;;;;-0.33;95.46;99472.13;10531953;28;20059;-74
2023/01/01 15:01:41;;;;;;;2.33;1.33;;;;;;;-0.38;95.64;99473.88;10530451;28;20557;-75
2023/01/01 15:06:43;;;;;;;4.55;1.20;;;;;;;-0.29;95.44;99494.03;10531556;28;20526;-74
2023/01/01 15:11:46;;;;;;;2.80;1.23;;;;;;;-0.39;94.97;99507.28;10530207;28;20032;-75
2023/01/01 15:17:02;;;;;;;3.20;0.77;;;;;;;-0.50;95.26;99482.00;10530405;28;20607;-75
2023/01/01 15:22:22;;;;;;;3.15;1.33;;;;;;;-0.58;95.44;99490.44;10531440;28;20507;-75
2023/01/01 15:27:33;;;;;;;6.28;1.70;;;;;;;-0.69;96.12;99489.41;10529630;28;20036;-75
2023/01/01 15:32:40;;;;;;;4.60;2.20;;;;;;;-0.77;96.38;99494.31;10528959;28;20043;-77
2023/01/01 15:37:44;;;;;;;1.20;0.88;;;;;;;-0.77;95.99;99503.22;10529402;28;20067;-75
2023/01/01 15:43:15;;;;;;;1.92;0.98;;;;;;;-0.78;96.24;99517.75;10529628;28;20044;-75
2023/01/01 15:48:37;;;;;;;4.78;1.20;;;;;;;-0.78;96.05;99512.34;10495512;28;20044;-75
2023/01/01 15:53:44;;;;;;;1.55;0.70;;;;;;;-0.81;96.37;99528.19;10508012;28;20507;-75
2023/01/01 15:58:52;;;;;;;4.65;1.27;;;;;;;-0.66;96.31;99544.69;10528102;28;20104;-75
2023/01/01 16:04:17;;;;;;;2.40;0.88;;;;;;;-0.71;96.46;99549.94;10508742;28;20064;-74
2023/01/01 16:09:23;;;;;;;2.15;1.05;;;;;;;-0.69;96.48;99558.63;10472251;28;20508;-75
2023/01/01 16:14:26;;;;;;;5.03;1.40;;;;;;;-0.81;96.03;99560.50;10487467;28;20045;-74
2023/01/01 16:19:32;;;;;;;1.95;0.98;;;;;;;-0.91;95.85;99550.28;10469087;28;20232;-74
2023/01/01 16:24:39;;;;;;;1.60;1.15;;;;;;;-0.97;96.05;99552.03;10494216;28;20524;-75
2023/01/01 16:29:41;;;;;;;6.63;1.25;;;;;;;-1.08;96.43;99544.75;10524377;28;20053;-75
2023/01/01 16:34:43;;;;;;;4.63;1.30;;;;;;;-1.11;96.29;99555.19;10527236;28;20044;-75
2023/01/01 16:39:46;;;;;;;4.60;1.45;;;;;;;-1.12;96.45;99551.66;10526776;28;20423;-75
2023/01/01 16:44:48;;;;;;;2.13;1.02;;;;;;;-1.15;96.44;99559.41;10511547;28;20045;-75
2023/01/01 16:49:50;;;;;;;1.67;0.63;;;;;;;-1.17;96.46;99566.88;10485451;28;20040;-75
2023/01/01 16:54:53;;;;;;;3.55;0.60;;;;;;;-1.16;96.64;99573.91;10484459;28;20057;-76
2023/01/01 16:59:55;;;;;;;3.75;0.98;;;;;;;-1.16;96.27;99573.91;10486334;28;20057;-75
2023/01/01 17:04:57;;;;;;;3.17;0.80;;;;;;;-1.13;96.33;99570.75;10486935;28;20060;-75
2023/01/01 17:10:04;;;;;;;1.80;0.88;;;;;;;-1.14;96.21;99572.63;10486379;28;20064;-74
2023/01/01 17:15:07;;;;;;;1.90;0.60;;;;;;;-1.17;96.54;99581.16;10486084;28;20431;-74
2023/01/01 17:20:09;;;;;;;0.35;0.35;;;;;;;-1.13;95.74;99585.03;10490955;28;20040;-76
2023/01/01 17:25:12;;;;;;;6.10;0.90;;;;;;;-1.23;95.86;99600.91;10516341;28;20048;-75
2023/01/01 17:30:14;;;;;;;3.17;0.80;;;;;;;-1.34;95.55;99596.31;10527434;28;20056;-75
2023/01/01 17:35:16;;;;;;;0.88;0.50;;;;;;;-1.47;96.13;99604.56;10526444;28;20041;-75
2023/01/01 17:40:18;;;;;;;1.85;0.75;;;;;;;-1.50;95.76;99602.34;10525310;28;20053;-75
2023/01/01 17:45:20;;;;;;;1.92;1.35;;;;;;;-1.54;95.81;99615.44;10526328;28;20048;-76
2023/01/01 17:50:23;;;;;;;5.45;1.95;;;;;;;-1.48;95.06;99613.69;10526186;28;20051;-75
2023/01/01 17:55:25;;;;;;;2.47;1.00;;;;;;;-1.46;95.28;99616.97;10511917;28;20072;-75
2023/01/01 18:00:27;;;;;;;1.92;0.88;;;;;;;-1.58;95.28;99620.44;10508645;28;20064;-76
2023/01/01 18:05:29;;;;;;;1.65;0.80;;;;;;;-1.63;95.45;99617.59;10509419;28;20410;-76
2023/01/01 18:10:32;;;;;;;2.15;0.90;;;;;;;-1.66;95.44;99623.44;10532267;28;20048;-76
2023/01/01 18:15:36;;;;;;;2.72;1.00;;;;;;;-1.68;95.18;99640.84;10534549;28;20044;-76
2023/01/01 18:20:38;;;;;;;2.17;1.00;;;;;;;-1.58;95.04;99636.56;10477383;28;20057;-76
2023/01/01 18:25:40;;;;;;;2.53;0.77;;;;;;;-1.64;94.45;99647.41;10493001;28;20076;-76
2023/01/01 18:30:44;;;;;;;2.50;1.05;;;;;;;-1.67;94.43;99654.06;10492029;28;20049;-75
2023/01/01 18:35:46;;;;;;;3.58;0.60;;;;;;;-1.79;94.27;99663.94;10490701;28;20048;-75
2023/01/01 18:41:03;;;;;;;1.85;0.75;;;;;;;-1.79;94.44;99669.31;10490597;28;20061;-75
2023/01/01 18:46:08;;;;;;;0.82;0.77;;;;;;;-1.83;94.46;99674.31;10491291;28;20053;-76
2023/01/01 18:51:21;;;;;;;1.85;1.23;;;;;;;-1.86;94.46;99679.34;10490670;28;20052;-74
2023/01/01 18:56:24;;;;;;;2.55;0.57;;;;;;;-1.96;94.47;99684.41;10490795;28;20519;-74
2023/01/01 19:01:26;;;;;;;2.10;0.75;;;;;;;-1.93;94.07;99690.13;10490211;28;20044;-76
2023/01/01 19:06:31;;;;;;;2.63;1.35;;;;;;;-2.00;94.28;99692.09;10489900;28;20048;-75
2023/01/01 19:11:35;;;;;;;3.03;0.68;;;;;;;-1.96;94.37;99692.47;10488390;28;20515;-76
2023/01/01 19:16:37;;;;;;;1.88;0.70;;;;;;;-2.03;94.18;99702.47;10529415;28;20495;-75
2023/01/01 19:21:40;;;;;;;0.60;0.60;;;;;;;-2.03;94.07;99715.91;10517943;28;20048;-75
2023/01/01 19:26:44;;;;;;;2.05;0.75;;;;;;;-2.03;93.93;99723.97;10514119;28;20414;-74
2023/01/01 19:31:48;;;;;;;2.10;0.77;;;;;;;-1.95;94.05;99726.38;10512758;28;20488;-76
2023/01/01 19:36:50;;;;;;;2.60;0.60;;;;;;;-2.05;93.51;99731.44;10529702;28;20048;-76
2023/01/01 19:41:55;;;;;;;2.72;1.05;;;;;;;-2.15;93.60;99746.19;10530160;28;20052;-75
2023/01/01 19:46:59;;;;;;;3.53;0.75;;;;;;;-2.10;93.07;99752.75;10527810;28;20040;-75
2023/01/01 19:52:02;;;;;;;2.72;0.50;;;;;;;-2.05;93.14;99750.25;10529603;28;20158;-74
2023/01/01 19:57:04;;;;;;;0.95;0.68;;;;;;;-2.07;93.01;99757.72;10529623;28;20446;-75
2023/01/01 20:02:07;;;;;;;2.53;0.45;;;;;;;-2.05;92.96;99758.31;10517734;28;20056;-75
2023/01/01 20:07:10;;;;;;;0.85;0.60;;;;;;;-2.07;92.80;99741.59;10511592;28;20044;-75
2023/01/01 20:12:13;;;;;;;1.08;0.68;;;;;;;-2.07;92.46;99755.03;10528020;28;20110;-75
2023/01/01 20:17:17;;;;;;;2.97;1.08;;;;;;;-2.08;92.11;99761.41;10527394;28;20057;-75
2023/01/01 20:22:20;;;;;;;0.73;0.50;;;;;;;-2.13;91.57;99770.97;10504716;28;20057;-76
2023/01/01 20:27:26;;;;;;;1.70;0.40;;;;;;;-2.23;91.17;99789.47;10486529;28;20045;-74
2023/01/01 20:32:28;;;;;;;0.47;0.40;;;;;;;-2.28;91.69;99800.03;10486992;28;20052;-76
2023/01/01 20:37:36;;;;;;;0.95;0.50;;;;;;;-2.29;91.55;99802.94;10485961;28;20049;-75
2023/01/01 20:42:39;;;;;;;2.97;0.60;;;;;;;-2.29;91.19;99822.56;10523937;28;20040;-75
2023/01/01 20:47:41;;;;;;;2.70;0.60;;;;;;;-2.38;91.65;99813.16;10528081;28;20392;-75
2023/01/01 20:52:43;;;;;;;2.00;0.70;;;;;;;-2.32;91.51;99814.94;10526114;28;20032;-74
2023/01/01 20:57:45;;;;;;;1.25;0.40;;;;;;;-2.34;91.77;99835.84;10517824;28;20526;-75
2023/01/01 21:02:48;;;;;;;0.65;0.47;;;;;;;-2.40;91.76;99849.31;10503357;28;20499;-75
2023/01/01 21:07:51;;;;;;;2.47;0.55;;;;;;;-2.41;91.49;99845.81;10527077;28;20434;-75
2023/01/01 21:12:53;;;;;;;0.60;0.60;;;;;;;-2.42;91.46;99849.56;10527744;28;20040;-75
2023/01/01 21:17:56;;;;;;;1.67;0.40;;;;;;;-2.46;91.22;99843.75;10526237;28;20083;-75
2023/01/01 21:22:59;;;;;;;1.27;0.60;;;;;;;-2.39;91.48;99854.47;10526983;28;20414;-75
2023/01/01 21:28:01;;;;;;;1.17;0.50;;;;;;;-2.31;90.71;99848.00;10527087;28;20052;-75
2023/01/01 21:33:12;;;;;;;2.47;0.80;;;;;;;-2.36;90.68;99875.53;10535069;28;20050;-75
2023/01/01 21:38:22;;;;;;;1.92;0.80;;;;;;;-2.38;90.37;99882.16;10516041;28;20045;-75
2023/01/01 21:43:37;;;;;;;1.15;0.38;;;;;;;-2.40;90.44;99886.94;10533410;28;20048;-75
2023/01/01 21:49:00;;;;;;;0.65;0.50;;;;;;;-2.45;90.58;99882.19;10534680;28;20048;-75
2023/01/01 21:54:08;;;;;;;1.50;0.70;;;;;;;-2.52;90.31;99882.22;10519786;28;20056;-75
2023/01/01 21:59:27;;;;;;;1.45;0.47;;;;;;;-2.49;90.35;99897.91;10492408;28;20543;-74
2023/01/01 22:04:37;;;;;;;;;;;;;;;-2.44;90.33;99916.06;10491823;28;20507;-75
2023/01/01 22:09:44;;;;;;;0.73;0.50;;;;;;;-2.44;90.71;99916.91;10529382;28;19920;-75
2023/01/01 22:14:48;;;;;;;4.97;0.87;;;;;;;-2.48;90.94;99920.22;10499455;28;20041;-75
2023/01/01 22:19:56;;;;;;;1.95;0.80;;;;;;;-2.50;91.26;99917.75;10492308;28;20056;-74
2023/01/01 22:25:14;;;;;;;1.75;0.77;;;;;;;-2.45;91.00;99933.22;10510037;28;20208;-75
2023/01/01 22:30:16;;;;;;;1.48;0.50;;;;;;;-2.47;91.29;99946.06;10521059;28;20055;-74
2023/01/01 22:35:22;;;;;;;0.77;0.30;;;;;;;-2.51;91.14;99951.03;10540945;28;20040;-75
2023/01/01 22:40:28;;;;;;;2.47;0.80;;;;;;;-2.55;90.57;99954.38;10532607;28;20048;-74
2023/01/01 22:45:32;;;;;;;1.15;0.30;;;;;;;-2.54;90.73;99953.31;10532318;28;20040;-75
2023/01/01 22:50:35;;;;;;;2.08;0.65;;;;;;;-2.51;90.47;99960.94;10532129;28;20483;-74
2023/01/01 22:55:37;;;;;;;2.88;0.68;;;;;;;-2.54;90.36;99954.16;10530691;28;20503;-74
2023/01/01 23:00:40;;;;;;;3.72;0.77;;;;;;;-2.54;89.78;99964.91;10495034;28;20047;-74
2023/01/01 23:05:42;;;;;;;1.92;0.60;;;;;;;-2.56;90.23;99971.53;10504349;28;20053;-75
2023/01/01 23:10:45;;;;;;;3.42;0.70;;;;;;;-2.56;90.27;99980.41;10491567;28;20055;-76
2023/01/01 23:16:00;;;;;;;1.23;0.30;;;;;;;-2.48;90.87;99993.59;10525917;28;20414;-74
2023/01/01 23:21:23;;;;;;;3.42;0.40;;;;;;;-2.48;90.81;99995.44;10508804;28;20064;-75
2023/01/01 23:26:25;;;;;;;1.88;0.47;;;;;;;-2.52;90.93;100004.97;10517909;28;20048;-75
2023/01/01 23:31:28;;;;;;;1.27;0.52;;;;;;;-2.53;90.51;99998.78;10525870;28;20414;-75
2023/01/01 23:36:31;;;;;;;0.43;0.40;;;;;;;-2.51;90.21;100003.94;10529953;28;20048;-75
2023/01/01 23:41:33;;;;;;;2.78;1.05;;;;;;;-2.52;89.98;100021.09;10533882;28;20076;-74
2023/01/01 23:46:36;;;;;;;3.67;0.68;;;;;;;-2.56;90.11;100019.88;10489269;28;20052;-75
2023/01/01 23:51:39;;;;;;;0.47;0.20;;;;;;;-2.60;89.69;100024.00;10488936;28;20067;-74
2023/01/01 23:57:06;;;;;;;0.25;0.20;;;;;;;-2.65;89.42;100040.72;10488656;28;20515;-74
